Flight Track Log - Related Links

Times and Time Zones

All times are in EDT time to prevent confusion due to time zone crossing. See the N5946C flight status page for this flight to view local times or setup timezone preferences in your user account.

Time Position Orientation Groundspeed Altitude Reporting Facility
EDT Latitude Longitude Course Direction KTS MPH feet Rate Location/Type
Sat 04:46:13 PM 42.2208 -72.6531 181° South 139 160 3,400  Level Boston Center
Sat 04:47:20 PM 42.1772 -72.6614 188° South 148 170 4,100 567 Climbing Boston Center
Sat 04:48:20 PM 42.1375 -72.6583 177° South 140 161 4,600 590 Climbing Boston Center
Sat 04:49:22 PM 42.0981 -72.6583 180° South 143 165 5,300 590 Climbing Boston Center
Sat 04:50:22 PM 42.0583 -72.6553 177° South 142 163 5,800 496 Climbing Boston Center
Sat 04:51:00 PM 42.0159 -72.6156 181° South  Level Estimated
Sat 04:51:23 PM 42.0167 -72.6553 180° South 150 173 6,300  Level Boston Center
Sat 04:52:23 PM 41.9750 -72.6550 180° South 146 168 6,700 143 Climbing Boston Center
Sat 04:53:29 PM 41.9250 -72.6606 185° South 163 188 6,600 -45 Descending Boston Center
Sat 04:54:36 PM 41.8750 -72.6603 180° South 162 186 6,600  Level Boston Center
Sat 04:55:24 PM 41.8394 -72.6575 177° South 166 191 6,600  Level Boston Center
Sat 04:56:28 PM 41.7917 -72.6572 180° South 162 186 6,600 51 Level Boston Center
Sat 04:57:22 PM 41.7519 -72.6544 177° South 166 191 6,700  Climbing Boston Center
Sat 04:58:23 PM 41.7083 -72.6569 182° South 164 189 6,600 -50 Descending Boston Center
Sat 04:59:23 PM 41.6561 -72.6511 175° South 166 191 6,600  Level Boston Center
Sat 05:00:30 PM 41.6083 -72.6483 178° South 162 186 6,600  Level Boston Center
Sat 05:01:24 PM 41.5667 -72.6453 177° South 158 182 6,600 -79 Level Boston Center
Sat 05:03:02 PM 41.5000 -72.6333 172° South 166 191 6,400 -228 Descending New York TRACON
Sat 05:04:02 PM 41.4500 -72.6333 180° South 183 211 6,000 -400 Descending New York TRACON
Sat 05:05:02 PM 41.4000 -72.6333 180° South 182 209 5,600 -350 Descending New York TRACON
Sat 05:06:02 PM 41.3500 -72.6333 180° South 175 201 5,300 -400 Descending New York TRACON
Sat 05:07:02 PM 41.3000 -72.6333 180° South 174 200 4,800 -550 Descending New York TRACON
Sat 05:08:02 PM 41.2500 -72.6333 180° South 174 200 4,200 -526 Descending New York TRACON
Sat 05:08:56 PM 41.2000 -72.6333 180° South 172 198 3,800 -526 Descending New York TRACON
Sat 05:09:56 PM 41.1500 -72.6333 180° South 175 201 3,200 -600 Descending New York TRACON
Sat 05:11:00 PM 41.1275 -72.6784 236° Southwest  Level FlightAware Approximate
Sat 05:18:00 PM 40.8874 -72.7248 123° Southeast  Level FlightAware Approximate
Sat 05:19:00 PM 40.8663 -72.6826 123° Southeast  Level FlightAware Approximate
Sat 05:20:00 PM 40.8453 -72.6405 123° Southeast  Level FlightAware Approximate
Sat 05:21:00 PM 40.8437 -72.6318 123° Southeast  Level Estimated
Sat 05:22:00 PM 40.8437 -72.6318 123° Southeast  Level Estimated
Sat 05:23:00 PM 40.8437 -72.6318 123° Southeast  Level Estimated
Sat 05:24:00 PM 40.8437 -72.6318 123° Southeast  Level Estimated
Sat 05:25:00 PM 40.8437 -72.6318 123° Southeast  Level Estimated
Sat 05:26:00 PM 40.8437 -72.6318 123° Southeast  Level Estimated
Sat 05:27:00 PM 40.8437 -72.6318 123° Southeast  Level Estimated
Sat 05:28:00 PM 40.8437 -72.6318 123° Southeast  Level Estimated
Sat 05:29:00 PM 40.8437 -72.6318 123° Southeast  Level Estimated
Sat 05:30:00 PM 40.8437 -72.6318 123° Southeast  Level Estimated
Sat 05:31:00 PM 40.8437 -72.6318 123° Southeast  Level Estimated
Sat 05:32:00 PM 40.8437 -72.6318 123° Southeast  Level Estimated
Sat 05:33:00 PM 40.8437 -72.6318 123° Southeast  Level Estimated
Sat 05:34:00 PM 40.8437 -72.6318 123° Southeast  Level Estimated
Sat 05:35:00 PM 40.8437 -72.6318 123° Southeast  Level Estimated
Sat 05:36:00 PM 40.8437 -72.6318 123° Southeast  Level Estimated
Sat 05:37:00 PM 40.8437 -72.6318 123° Southeast  Level Estimated
Sat 05:38:00 PM 40.8437 -72.6318 123° Southeast  Level Estimated
Sat 05:39:00 PM 40.8437 -72.6318 123° Southeast  Level Estimated
Sat 05:40:00 PM 40.8437 -72.6318 123° Southeast  Level Estimated

Login

Don't have an account? Register now (free) for customized features, flight alerts, and more!